sensor_id;sensor_type;location;lat;lon;timestamp;pressure;altitude;pressure_sealevel;temperature;humidity
82262;BME280;71861;52.364;6.580;2023-12-29T04:02:35;100586.59;;;9.12;99.96
82262;BME280;71861;52.364;6.580;2023-12-29T04:05:01;100578.53;;;9.15;100.00
82262;BME280;71861;52.364;6.580;2023-12-29T04:07:26;100584.31;;;9.09;100.00
82262;BME280;71861;52.364;6.580;2023-12-29T04:09:51;100590.13;;;9.03;100.00
82262;BME280;71861;52.364;6.580;2023-12-29T04:12:17;100582.00;;;8.98;100.00
82262;BME280;71861;52.364;6.580;2023-12-29T04:14:42;100585.72;;;8.95;100.00
82262;BME280;71861;52.364;6.580;2023-12-29T04:17:07;100589.44;;;8.93;100.00
82262;BME280;71861;52.364;6.580;2023-12-29T04:19:39;100580.00;;;8.92;100.00
82262;BME280;71861;52.364;6.580;2023-12-29T04:22:05;100595.56;;;8.92;100.00
82262;BME280;71861;52.364;6.580;2023-12-29T04:24:30;100580.31;;;8.89;100.00
82262;BME280;71861;52.364;6.580;2023-12-29T04:26:55;100571.09;;;8.86;100.00
82262;BME280;71861;52.364;6.580;2023-12-29T04:29:20;100570.09;;;8.87;100.00
82262;BME280;71861;52.364;6.580;2023-12-29T04:31:46;100564.28;;;8.85;100.00
82262;BME280;71861;52.364;6.580;2023-12-29T04:34:11;100565.75;;;8.88;99.89
82262;BME280;71861;52.364;6.580;2023-12-29T04:36:36;100561.53;;;8.87;99.69
82262;BME280;71861;52.364;6.580;2023-12-29T04:39:02;100567.03;;;8.84;99.26
82262;BME280;71861;52.364;6.580;2023-12-29T04:41:27;100565.38;;;8.83;98.90
82262;BME280;71861;52.364;6.580;2023-12-29T04:43:52;100576.56;;;8.83;98.69
82262;BME280;71861;52.364;6.580;2023-12-29T04:46:18;100580.78;;;8.84;98.74
82262;BME280;71861;52.364;6.580;2023-12-29T04:48:43;100580.94;;;8.83;99.20
82262;BME280;71861;52.364;6.580;2023-12-29T04:51:08;100579.31;;;8.82;99.39
82262;BME280;71861;52.364;6.580;2023-12-29T04:53:34;100568.97;;;8.82;99.44
82262;BME280;71861;52.364;6.580;2023-12-29T04:55:59;100567.03;;;8.84;99.57
82262;BME280;71861;52.364;6.580;2023-12-29T04:58:24;100587.59;;;8.85;99.46
82262;BME280;71861;52.364;6.580;2023-12-29T05:00:49;100586.47;;;8.88;99.42
82262;BME280;71861;52.364;6.580;2023-12-29T05:03:15;100585.66;;;8.87;100.00
82262;BME280;71861;52.364;6.580;2023-12-29T05:05:40;100586.16;;;8.91;100.00
82262;BME280;71861;52.364;6.580;2023-12-29T05:08:06;100584.41;;;8.91;100.00
82262;BME280;71861;52.364;6.580;2023-12-29T05:10:31;100595.09;;;8.96;100.00
82262;BME280;71861;52.364;6.580;2023-12-29T05:12:59;100582.81;;;8.98;99.92
82262;BME280;71861;52.364;6.580;2023-12-29T05:15:25;100583.47;;;9.00;99.32
82262;BME280;71861;52.364;6.580;2023-12-29T05:17:50;100589.47;;;9.01;99.51
82262;BME280;71861;52.364;6.580;2023-12-29T05:20:15;100587.84;;;9.00;99.33
82262;BME280;71861;52.364;6.580;2023-12-29T05:22:41;100591.41;;;8.99;99.59
82262;BME280;71861;52.364;6.580;2023-12-29T05:25:06;100589.75;;;8.98;99.64
82262;BME280;71861;52.364;6.580;2023-12-29T05:27:32;100587.00;;;8.99;99.86
82262;BME280;71861;52.364;6.580;2023-12-29T05:29:57;100585.25;;;9.00;99.75
82262;BME280;71861;52.364;6.580;2023-12-29T05:32:22;100588.66;;;9.00;99.88
82262;BME280;71861;52.364;6.580;2023-12-29T05:34:48;100573.28;;;8.99;99.86
82262;BME280;71861;52.364;6.580;2023-12-29T05:37:13;100583.31;;;9.02;99.95
82262;BME280;71861;52.364;6.580;2023-12-29T05:39:41;100579.91;;;9.01;99.80
82262;BME280;71861;52.364;6.580;2023-12-29T05:42:07;100577.84;;;9.05;99.17
82262;BME280;71861;52.364;6.580;2023-12-29T05:44:35;100594.53;;;9.10;98.82
82262;BME280;71861;52.364;6.580;2023-12-29T05:47:01;100602.16;;;9.12;99.16
82262;BME280;71861;52.364;6.580;2023-12-29T05:49:26;100588.25;;;9.13;99.01
82262;BME280;71861;52.364;6.580;2023-12-29T05:51:52;100595.03;;;9.14;98.46
82262;BME280;71861;52.364;6.580;2023-12-29T05:54:17;100602.50;;;9.17;97.07
82262;BME280;71861;52.364;6.580;2023-12-29T05:56:43;100603.97;;;9.19;97.11
82262;BME280;71861;52.364;6.580;2023-12-29T05:59:08;100612.25;;;9.23;96.99
82262;BME280;71861;52.364;6.580;2023-12-29T06:01:34;100620.88;;;9.23;96.46
82262;BME280;71861;52.364;6.580;2023-12-29T06:03:59;100611.59;;;9.21;96.51
82262;BME280;71861;52.364;6.580;2023-12-29T06:06:25;100624.91;;;9.26;95.75
82262;BME280;71861;52.364;6.580;2023-12-29T06:08:50;100620.56;;;9.26;95.69
82262;BME280;71861;52.364;6.580;2023-12-29T06:11:15;100605.97;;;9.25;95.34
82262;BME280;71861;52.364;6.580;2023-12-29T06:13:41;100605.97;;;9.25;95.35
82262;BME280;71861;52.364;6.580;2023-12-29T06:16:07;100588.56;;;9.18;94.82
82262;BME280;71861;52.364;6.580;2023-12-29T06:18:32;100588.09;;;9.22;94.68
82262;BME280;71861;52.364;6.580;2023-12-29T06:20:58;100591.69;;;9.21;94.33
82262;BME280;71861;52.364;6.580;2023-12-29T06:23:23;100587.31;;;9.22;94.37
82262;BME280;71861;52.364;6.580;2023-12-29T06:25:50;100602.06;;;9.21;94.05
82262;BME280;71861;52.364;6.580;2023-12-29T06:28:16;100602.72;;;9.23;94.02
82262;BME280;71861;52.364;6.580;2023-12-29T06:30:41;100592.84;;;9.27;93.27
82262;BME280;71861;52.364;6.580;2023-12-29T06:33:07;100605.50;;;9.30;93.75
82262;BME280;71861;52.364;6.580;2023-12-29T06:35:33;100608.75;;;9.32;93.35
82262;BME280;71861;52.364;6.580;2023-12-29T06:37:59;100606.81;;;9.34;93.24
82262;BME280;71861;52.364;6.580;2023-12-29T06:40:24;100602.94;;;9.38;92.96
82262;BME280;71861;52.364;6.580;2023-12-29T06:42:49;100594.03;;;9.40;92.22
82262;BME280;71861;52.364;6.580;2023-12-29T06:45:15;100598.41;;;9.40;92.31
82262;BME280;71861;52.364;6.580;2023-12-29T06:47:40;100590.63;;;9.40;91.81
82262;BME280;71861;52.364;6.580;2023-12-29T06:50:06;100593.22;;;9.40;91.85
82262;BME280;71861;52.364;6.580;2023-12-29T06:52:32;100603.44;;;9.41;92.05
82262;BME280;71861;52.364;6.580;2023-12-29T06:55:02;100595.81;;;9.40;92.31
82262;BME280;71861;52.364;6.580;2023-12-29T06:57:27;100587.38;;;9.38;91.99
82262;BME280;71861;52.364;6.580;2023-12-29T06:59:53;100574.91;;;9.41;91.58
82262;BME280;71861;52.364;6.580;2023-12-29T07:02:18;100573.78;;;9.44;91.48
82262;BME280;71861;52.364;6.580;2023-12-29T07:04:43;100572.81;;;9.45;91.76
82262;BME280;71861;52.364;6.580;2023-12-29T07:07:09;100565.03;;;9.45;91.29
82262;BME280;71861;52.364;6.580;2023-12-29T07:09:37;100573.50;;;9.47;91.50
82262;BME280;71861;52.364;6.580;2023-12-29T07:12:03;100578.69;;;9.47;91.05
82262;BME280;71861;52.364;6.580;2023-12-29T07:14:28;100560.53;;;9.47;91.23
82262;BME280;71861;52.364;6.580;2023-12-29T07:16:54;100550.94;;;9.47;90.89
82262;BME280;71861;52.364;6.580;2023-12-29T07:19:19;100558.25;;;9.52;91.05
82262;BME280;71861;52.364;6.580;2023-12-29T07:21:45;100561.81;;;9.51;90.61
82262;BME280;71861;52.364;6.580;2023-12-29T07:24:11;100572.19;;;9.51;90.47
82262;BME280;71861;52.364;6.580;2023-12-29T07:26:36;100566.19;;;9.50;90.42
82262;BME280;71861;52.364;6.580;2023-12-29T07:29:01;100568.94;;;9.49;90.77
82262;BME280;71861;52.364;6.580;2023-12-29T07:31:27;100574.78;;;9.51;90.97
82262;BME280;71861;52.364;6.580;2023-12-29T07:33:52;100575.44;;;9.53;90.41
82262;BME280;71861;52.364;6.580;2023-12-29T07:36:17;100572.19;;;9.51;90.74
82262;BME280;71861;52.364;6.580;2023-12-29T07:38:43;100562.28;;;9.46;90.53
82262;BME280;71861;52.364;6.580;2023-12-29T07:41:09;100571.38;;;9.50;90.44
82262;BME280;71861;52.364;6.580;2023-12-29T07:43:35;100576.25;;;9.53;89.70
82262;BME280;71861;52.364;6.580;2023-12-29T07:46:01;100564.91;;;9.62;89.39
82262;BME280;71861;52.364;6.580;2023-12-29T07:48:27;100557.81;;;9.64;89.89
82262;BME280;71861;52.364;6.580;2023-12-29T07:50:52;100549.69;;;9.67;89.18
82262;BME280;71861;52.364;6.580;2023-12-29T07:53:17;100552.78;;;9.71;88.85
82262;BME280;71861;52.364;6.580;2023-12-29T07:55:43;100564.78;;;9.72;89.38
82262;BME280;71861;52.364;6.580;2023-12-29T07:58:09;100551.19;;;9.70;89.39
82262;BME280;71861;52.364;6.580;2023-12-29T08:00:36;100559.13;;;9.68;89.67
82262;BME280;71861;52.364;6.580;2023-12-29T08:03:01;100551.78;;;9.64;89.93
82262;BME280;71861;52.364;6.580;2023-12-29T08:05:26;100549.19;;;9.56;89.97
82262;BME280;71861;52.364;6.580;2023-12-29T08:07:52;100558.94;;;9.62;90.32
82262;BME280;71861;52.364;6.580;2023-12-29T08:10:17;100577.72;;;9.64;90.23
82262;BME280;71861;52.364;6.580;2023-12-29T08:12:42;100572.53;;;9.64;90.38
82262;BME280;71861;52.364;6.580;2023-12-29T08:15:08;100568.34;;;9.63;90.73
82262;BME280;71861;52.364;6.580;2023-12-29T08:17:33;100576.94;;;9.63;90.91
82262;BME280;71861;52.364;6.580;2023-12-29T08:19:59;100588.28;;;9.62;91.40
82262;BME280;71861;52.364;6.580;2023-12-29T08:22:24;100583.56;;;9.58;91.68
82262;BME280;71861;52.364;6.580;2023-12-29T08:24:49;100584.53;;;9.57;92.03
82262;BME280;71861;52.364;6.580;2023-12-29T08:27:22;100588.59;;;9.51;92.03
82262;BME280;71861;52.364;6.580;2023-12-29T08:29:47;100598.47;;;9.56;92.38
82262;BME280;71861;52.364;6.580;2023-12-29T08:32:13;100573.50;;;9.55;92.90
82262;BME280;71861;52.364;6.580;2023-12-29T08:34:38;100600.72;;;9.51;93.56
82262;BME280;71861;52.364;6.580;2023-12-29T08:37:03;100608.81;;;9.48;93.75
82262;BME280;71861;52.364;6.580;2023-12-29T08:39:28;100609.28;;;9.43;94.36
82262;BME280;71861;52.364;6.580;2023-12-29T08:41:54;100604.09;;;9.43;94.80
82262;BME280;71861;52.364;6.580;2023-12-29T08:44:19;100610.56;;;9.39;95.11
82262;BME280;71861;52.364;6.580;2023-12-29T08:46:44;100609.75;;;9.39;95.02
82262;BME280;71861;52.364;6.580;2023-12-29T08:49:10;100605.38;;;9.39;95.67
82262;BME280;71861;52.364;6.580;2023-12-29T08:51:35;100604.72;;;9.37;95.97
82262;BME280;71861;52.364;6.580;2023-12-29T08:54:01;100583.16;;;9.37;96.03
82262;BME280;71861;52.364;6.580;2023-12-29T08:56:27;100595.63;;;9.33;96.51
82262;BME280;71861;52.364;6.580;2023-12-29T08:58:54;100605.50;;;9.30;96.65
82262;BME280;71861;52.364;6.580;2023-12-29T09:01:19;100600.63;;;9.27;97.06
82262;BME280;71861;52.364;6.580;2023-12-29T09:03:45;100588.94;;;9.23;97.86
82262;BME280;71861;52.364;6.580;2023-12-29T09:06:11;100599.31;;;9.23;97.92
82262;BME280;71861;52.364;6.580;2023-12-29T09:08:36;100588.25;;;9.21;98.17
82262;BME280;71861;52.364;6.580;2023-12-29T09:11:02;100606.09;;;9.24;98.27
82262;BME280;71861;52.364;6.580;2023-12-29T09:13:27;100580.78;;;9.10;98.74
82262;BME280;71861;52.364;6.580;2023-12-29T09:15:54;100599.66;;;9.28;98.69
82262;BME280;71861;52.364;6.580;2023-12-29T09:18:20;100600.97;;;9.32;98.77
82262;BME280;71861;52.364;6.580;2023-12-29T09:20:45;100594.81;;;9.33;98.70
82262;BME280;71861;52.364;6.580;2023-12-29T09:23:11;100614.13;;;9.38;98.72
82262;BME280;71861;52.364;6.580;2023-12-29T09:25:36;100600.19;;;9.39;98.82
82262;BME280;71861;52.364;6.580;2023-12-29T09:28:03;100610.09;;;9.44;98.62
82262;BME280;71861;52.364;6.580;2023-12-29T09:30:28;100601.50;;;9.43;98.93
82262;BME280;71861;52.364;6.580;2023-12-29T09:32:54;100611.88;;;9.43;99.37
82262;BME280;71861;52.364;6.580;2023-12-29T09:35:19;100614.63;;;9.42;100.00
82262;BME280;71861;52.364;6.580;2023-12-29T09:37:47;100597.44;;;9.41;100.00
82262;BME280;71861;52.364;6.580;2023-12-29T09:40:13;100594.84;;;9.41;100.00
82262;BME280;71861;52.364;6.580;2023-12-29T09:42:38;100599.38;;;9.39;100.00
82262;BME280;71861;52.364;6.580;2023-12-29T09:45:07;100594.03;;;9.40;100.00
82262;BME280;71861;52.364;6.580;2023-12-29T09:47:36;100590.31;;;9.43;100.00
82262;BME280;71861;52.364;6.580;2023-12-29T09:50:04;100588.06;;;9.48;100.00
82262;BME280;71861;52.364;6.580;2023-12-29T09:52:30;100596.84;;;9.47;100.00
82262;BME280;71861;52.364;6.580;2023-12-29T09:54:55;100597.16;;;9.52;100.00
82262;BME280;71861;52.364;6.580;2023-12-29T09:57:21;100602.19;;;9.53;99.96
82262;BME280;71861;52.364;6.580;2023-12-29T09:59:48;100604.47;;;9.56;100.00
82262;BME280;71861;52.364;6.580;2023-12-29T10:02:17;100618.59;;;9.62;99.63
82262;BME280;71861;52.364;6.580;2023-12-29T10:04:42;100606.78;;;9.67;99.28
82262;BME280;71861;52.364;6.580;2023-12-29T10:07:10;100609.53;;;9.66;98.96
82262;BME280;71861;52.364;6.580;2023-12-29T10:09:39;100606.47;;;9.70;98.63
82262;BME280;71861;52.364;6.580;2023-12-29T10:12:09;100616.03;;;9.70;98.65
82262;BME280;71861;52.364;6.580;2023-12-29T10:14:46;100597.72;;;9.71;98.91
82262;BME280;71861;52.364;6.580;2023-12-29T10:17:22;100591.41;;;9.74;98.32
82262;BME280;71861;52.364;6.580;2023-12-29T10:20:01;100604.06;;;9.77;97.63
82262;BME280;71861;52.364;6.580;2023-12-29T10:22:38;100598.88;;;9.77;97.66
82262;BME280;71861;52.364;6.580;2023-12-29T10:25:08;100593.34;;;9.80;97.45
82262;BME280;71861;52.364;6.580;2023-12-29T10:27:33;100588.84;;;9.82;97.13
82262;BME280;71861;52.364;6.580;2023-12-29T10:29:59;100568.88;;;9.82;96.75
82262;BME280;71861;52.364;6.580;2023-12-29T10:32:24;100588.50;;;9.85;96.63
82262;BME280;71861;52.364;6.580;2023-12-29T10:35:03;100585.28;;;9.91;96.65
82262;BME280;71861;52.364;6.580;2023-12-29T10:37:32;100586.25;;;9.98;96.56
82262;BME280;71861;52.364;6.580;2023-12-29T10:39:57;100586.41;;;9.96;95.96
82262;BME280;71861;52.364;6.580;2023-12-29T10:42:22;100574.97;;;10.07;95.80
82262;BME280;71861;52.364;6.580;2023-12-29T10:45:04;100586.97;;;10.16;95.31
82262;BME280;71861;52.364;6.580;2023-12-29T10:47:30;100586.16;;;10.24;95.25
82262;BME280;71861;52.364;6.580;2023-12-29T10:49:59;100583.75;;;10.30;93.91
82262;BME280;71861;52.364;6.580;2023-12-29T10:52:25;100590.88;;;10.36;93.69
82262;BME280;71861;52.364;6.580;2023-12-29T10:55:03;100589.56;;;10.40;93.73
82262;BME280;71861;52.364;6.580;2023-12-29T10:57:29;100605.50;;;10.45;93.78
82262;BME280;71861;52.364;6.580;2023-12-29T10:59:55;100604.50;;;10.54;93.29
82262;BME280;71861;52.364;6.580;2023-12-29T11:02:21;100603.19;;;10.58;93.52
82262;BME280;71861;52.364;6.580;2023-12-29T11:04:46;100610.53;;;10.55;93.31
82262;BME280;71861;52.364;6.580;2023-12-29T11:07:12;100591.69;;;10.53;93.59
82262;BME280;71861;52.364;6.580;2023-12-29T11:09:38;100604.84;;;10.51;93.43
82262;BME280;71861;52.364;6.580;2023-12-29T11:12:04;100607.09;;;10.46;93.26
82262;BME280;71861;52.364;6.580;2023-12-29T11:14:31;100603.38;;;10.41;93.06
82262;BME280;71861;52.364;6.580;2023-12-29T11:16:58;100600.94;;;10.39;93.31
82262;BME280;71861;52.364;6.580;2023-12-29T11:19:26;100594.94;;;10.39;93.81
82262;BME280;71861;52.364;6.580;2023-12-29T11:21:55;100598.34;;;10.39;94.40
82262;BME280;71861;52.364;6.580;2023-12-29T11:24:21;100615.72;;;10.39;93.97
82262;BME280;71861;52.364;6.580;2023-12-29T11:26:50;100628.34;;;10.34;94.67
82262;BME280;71861;52.364;6.580;2023-12-29T11:29:16;100628.84;;;10.29;96.12
82262;BME280;71861;52.364;6.580;2023-12-29T11:31:42;100649.13;;;10.18;96.75
82262;BME280;71861;52.364;6.580;2023-12-29T11:34:22;100619.50;;;10.02;98.30
82262;BME280;71861;52.364;6.580;2023-12-29T11:36:54;100657.94;;;9.91;98.76
82262;BME280;71861;52.364;6.580;2023-12-29T11:42:13;100665.47;;;9.60;100.00
82262;BME280;71861;52.364;6.580;2023-12-29T11:44:39;100647.47;;;9.33;98.30
82262;BME280;71861;52.364;6.580;2023-12-29T11:47:04;100654.84;;;8.95;91.63
82262;BME280;71861;52.364;6.580;2023-12-29T11:49:58;100633.25;;;8.43;92.57
82262;BME280;71861;52.364;6.580;2023-12-29T11:52:38;100634.69;;;8.10;93.74
82262;BME280;71861;52.364;6.580;2023-12-29T11:55:11;100631.56;;;7.89;95.90
82262;BME280;71861;52.364;6.580;2023-12-29T11:57:38;100636.22;;;7.86;97.93
82262;BME280;71861;52.364;6.580;2023-12-29T12:00:05;100637.19;;;7.85;100.00
82262;BME280;71861;52.364;6.580;2023-12-29T12:02:31;100649.72;;;7.80;100.00
82262;BME280;71861;52.364;6.580;2023-12-29T12:04:57;100647.16;;;7.80;100.00
82262;BME280;71861;52.364;6.580;2023-12-29T12:09:51;100636.59;;;7.91;100.00
82262;BME280;71861;52.364;6.580;2023-12-29T12:12:40;100647.56;;;8.02;100.00
82262;BME280;71861;52.364;6.580;2023-12-29T12:18:04;100639.09;;;8.27;100.00
82262;BME280;71861;52.364;6.580;2023-12-29T12:20:32;100641.47;;;8.38;100.00
82262;BME280;71861;52.364;6.580;2023-12-29T12:23:17;100650.13;;;8.47;100.00
82262;BME280;71861;52.364;6.580;2023-12-29T12:25:44;100628.59;;;8.47;100.00
82262;BME280;71861;52.364;6.580;2023-12-29T12:28:13;100650.19;;;8.55;100.00
82262;BME280;71861;52.364;6.580;2023-12-29T12:30:39;100639.06;;;8.63;100.00
82262;BME280;71861;52.364;6.580;2023-12-29T12:33:04;100633.44;;;8.67;100.00
82262;BME280;71861;52.364;6.580;2023-12-29T12:35:30;100630.09;;;8.75;100.00
82262;BME280;71861;52.364;6.580;2023-12-29T12:38:11;100634.41;;;8.84;100.00
82262;BME280;71861;52.364;6.580;2023-12-29T12:40:37;100633.97;;;8.96;100.00
82262;BME280;71861;52.364;6.580;2023-12-29T12:43:03;100625.00;;;9.08;100.00
82262;BME280;71861;52.364;6.580;2023-12-29T12:45:33;100631.03;;;9.17;100.00
82262;BME280;71861;52.364;6.580;2023-12-29T12:48:32;100635.97;;;9.28;100.00
82262;BME280;71861;52.364;6.580;2023-12-29T12:50:54;100622.06;;;9.37;100.00
82262;BME280;71861;52.364;6.580;2023-12-29T12:53:22;100618.38;;;9.47;100.00
82262;BME280;71861;52.364;6.580;2023-12-29T12:55:48;100620.50;;;9.52;99.95
82262;BME280;71861;52.364;6.580;2023-12-29T12:58:18;100617.28;;;9.58;99.06
82262;BME280;71861;52.364;6.580;2023-12-29T13:00:45;100617.75;;;9.53;98.98
82262;BME280;71861;52.364;6.580;2023-12-29T13:03:11;100626.06;;;9.65;98.17
82262;BME280;71861;52.364;6.580;2023-12-29T13:05:37;100624.16;;;9.67;96.28
82262;BME280;71861;52.364;6.580;2023-12-29T13:08:03;100617.00;;;9.69;94.87
82262;BME280;71861;52.364;6.580;2023-12-29T13:10:29;100610.19;;;9.68;95.04
82262;BME280;71861;52.364;6.580;2023-12-29T13:12:55;100625.09;;;9.66;95.69
82262;BME280;71861;52.364;6.580;2023-12-29T13:15:22;100626.88;;;9.65;96.62
82262;BME280;71861;52.364;6.580;2023-12-29T13:17:54;100627.69;;;9.66;96.89
82262;BME280;71861;52.364;6.580;2023-12-29T13:20:19;100637.75;;;9.69;97.23
82262;BME280;71861;52.364;6.580;2023-12-29T13:22:49;100639.41;;;9.78;96.11
82262;BME280;71861;52.364;6.580;2023-12-29T13:25:20;100641.38;;;9.84;97.26
82262;BME280;71861;52.364;6.580;2023-12-29T13:27:47;100637.31;;;9.81;96.02
82262;BME280;71861;52.364;6.580;2023-12-29T13:30:13;100619.47;;;9.78;93.68
82262;BME280;71861;52.364;6.580;2023-12-29T13:32:40;100641.22;;;9.77;94.49
82262;BME280;71861;52.364;6.580;2023-12-29T13:35:11;100629.03;;;9.70;95.02
82262;BME280;71861;52.364;6.580;2023-12-29T13:40:19;100623.44;;;9.57;92.66
82262;BME280;71861;52.364;6.580;2023-12-29T13:42:48;100615.47;;;9.50;92.77
82262;BME280;71861;52.364;6.580;2023-12-29T13:45:17;100626.47;;;9.44;92.72
82262;BME280;71861;52.364;6.580;2023-12-29T13:47:43;100637.66;;;9.45;94.05
82262;BME280;71861;52.364;6.580;2023-12-29T13:50:09;100633.41;;;9.36;94.51
82262;BME280;71861;52.364;6.580;2023-12-29T13:52:38;100620.75;;;9.33;94.60
82262;BME280;71861;52.364;6.580;2023-12-29T13:55:04;100629.31;;;9.33;94.64
82262;BME280;71861;52.364;6.580;2023-12-29T13:57:31;100632.44;;;9.37;95.16
82262;BME280;71861;52.364;6.580;2023-12-29T13:59:57;100631.47;;;9.38;95.22
82262;BME280;71861;52.364;6.580;2023-12-29T14:02:26;100634.03;;;9.38;95.49
82262;BME280;71861;52.364;6.580;2023-12-29T14:05:18;100623.69;;;9.38;94.77
82262;BME280;71861;52.364;6.580;2023-12-29T14:07:55;100595.78;;;9.32;94.72
82262;BME280;71861;52.364;6.580;2023-12-29T14:10:31;100601.63;;;9.34;94.50
82262;BME280;71861;52.364;6.580;2023-12-29T14:13:09;100592.53;;;9.30;94.54
82262;BME280;71861;52.364;6.580;2023-12-29T14:15:39;100600.31;;;9.30;95.40
82262;BME280;71861;52.364;6.580;2023-12-29T14:18:24;100610.69;;;9.30;95.04
82262;BME280;71861;52.364;6.580;2023-12-29T14:20:54;100611.28;;;9.24;94.61
82262;BME280;71861;52.364;6.580;2023-12-29T14:23:19;100612.63;;;9.28;94.39
82262;BME280;71861;52.364;6.580;2023-12-29T14:25:45;100618.81;;;9.35;96.22
82262;BME280;71861;52.364;6.580;2023-12-29T14:28:16;100623.97;;;9.27;94.81
82262;BME280;71861;52.364;6.580;2023-12-29T14:30:42;100624.91;;;9.26;95.31
82262;BME280;71861;52.364;6.580;2023-12-29T14:33:07;100628.34;;;9.26;96.31
82262;BME280;71861;52.364;6.580;2023-12-29T14:35:33;100606.56;;;9.19;96.28
82262;BME280;71861;52.364;6.580;2023-12-29T14:37:59;100622.31;;;9.26;96.06
82262;BME280;71861;52.364;6.580;2023-12-29T14:40:25;100614.03;;;9.22;96.46
82262;BME280;71861;52.364;6.580;2023-12-29T14:42:50;100616.16;;;9.19;96.47
82262;BME280;71861;52.364;6.580;2023-12-29T14:45:16;100623.09;;;9.18;96.22
82262;BME280;71861;52.364;6.580;2023-12-29T14:47:41;100615.63;;;9.15;96.27
82262;BME280;71861;52.364;6.580;2023-12-29T14:50:07;100615.78;;;9.14;96.69
82262;BME280;71861;52.364;6.580;2023-12-29T14:52:32;100616.75;;;9.13;96.92
82262;BME280;71861;52.364;6.580;2023-12-29T14:54:57;100606.69;;;9.10;96.52
82262;BME280;71861;52.364;6.580;2023-12-29T14:57:23;100609.28;;;9.10;96.55
82262;BME280;71861;52.364;6.580;2023-12-29T14:59:49;100613.66;;;9.09;96.51
82262;BME280;71861;52.364;6.580;2023-12-29T15:02:14;100612.19;;;9.07;96.60
82262;BME280;71861;52.364;6.580;2023-12-29T15:04:39;100610.25;;;9.09;96.14
82262;BME280;71861;52.364;6.580;2023-12-29T15:07:05;100611.22;;;9.08;97.00
82262;BME280;71861;52.364;6.580;2023-12-29T15:09:30;100613.81;;;9.08;96.74
82262;BME280;71861;52.364;6.580;2023-12-29T15:11:56;100615.38;;;9.01;97.26
82262;BME280;71861;52.364;6.580;2023-12-29T15:14:21;100615.88;;;9.04;97.42
82262;BME280;71861;52.364;6.580;2023-12-29T15:16:47;100615.72;;;9.06;97.07
82262;BME280;71861;52.364;6.580;2023-12-29T15:19:12;100612.34;;;9.05;97.20
82262;BME280;71861;52.364;6.580;2023-12-29T15:21:38;100607.44;;;9.02;97.41
82262;BME280;71861;52.364;6.580;2023-12-29T15:24:04;100592.50;;;8.96;97.15
82262;BME280;71861;52.364;6.580;2023-12-29T15:26:30;100601.16;;;9.05;97.63
82262;BME280;71861;52.364;6.580;2023-12-29T15:28:55;100589.59;;;8.99;97.35
82262;BME280;71861;52.364;6.580;2023-12-29T15:31:22;100598.09;;;9.09;97.58
82262;BME280;71861;52.364;6.580;2023-12-29T15:33:48;100591.78;;;9.12;97.48
82262;BME280;71861;52.364;6.580;2023-12-29T15:36:14;100583.06;;;9.13;97.26
82262;BME280;71861;52.364;6.580;2023-12-29T15:38:49;100570.41;;;9.10;97.58
82262;BME280;71861;52.364;6.580;2023-12-29T15:41:14;100573.78;;;9.10;97.43
82262;BME280;71861;52.364;6.580;2023-12-29T15:43:40;100569.28;;;9.12;98.17
82262;BME280;71861;52.364;6.580;2023-12-29T15:46:15;100569.13;;;9.14;98.03
82262;BME280;71861;52.364;6.580;2023-12-29T15:48:41;100575.28;;;9.13;98.12
82262;BME280;71861;52.364;6.580;2023-12-29T15:51:06;100580.47;;;9.13;98.34
82262;BME280;71861;52.364;6.580;2023-12-29T15:53:32;100582.41;;;9.11;98.34
82262;BME280;71861;52.364;6.580;2023-12-29T15:55:57;100573.94;;;9.09;98.76
82262;BME280;71861;52.364;6.580;2023-12-29T15:58:24;100566.94;;;9.01;99.50
82262;BME280;71861;52.364;6.580;2023-12-29T16:00:49;100555.28;;;8.97;99.10
82262;BME280;71861;52.364;6.580;2023-12-29T16:03:14;100551.66;;;8.90;98.62
82262;BME280;71861;52.364;6.580;2023-12-29T16:05:40;100565.81;;;8.96;99.79
82262;BME280;71861;52.364;6.580;2023-12-29T16:08:05;100569.66;;;8.92;99.74
82262;BME280;71861;52.364;6.580;2023-12-29T16:10:30;100569.94;;;8.89;100.00
82262;BME280;71861;52.364;6.580;2023-12-29T16:12:56;100565.22;;;8.84;100.00
82262;BME280;71861;52.364;6.580;2023-12-29T16:15:21;100558.91;;;8.79;100.00
82262;BME280;71861;52.364;6.580;2023-12-29T16:17:46;100558.91;;;8.79;99.03
82262;BME280;71861;52.364;6.580;2023-12-29T16:20:12;100553.50;;;8.72;98.75
82262;BME280;71861;52.364;6.580;2023-12-29T16:22:37;100556.19;;;8.63;98.49
82262;BME280;71861;52.364;6.580;2023-12-29T16:25:02;100574.94;;;8.57;97.94
82262;BME280;71861;52.364;6.580;2023-12-29T16:27:28;100555.13;;;8.48;99.05
82262;BME280;71861;52.364;6.580;2023-12-29T16:29:53;100544.41;;;8.42;100.00
82262;BME280;71861;52.364;6.580;2023-12-29T16:32:20;100558.63;;;8.38;100.00
82262;BME280;71861;52.364;6.580;2023-12-29T16:34:46;100550.13;;;8.28;100.00
82262;BME280;71861;52.364;6.580;2023-12-29T16:37:12;100552.25;;;8.33;100.00
82262;BME280;71861;52.364;6.580;2023-12-29T16:39:39;100546.28;;;8.32;100.00
82262;BME280;71861;52.364;6.580;2023-12-29T16:42:05;100549.81;;;8.31;100.00
82262;BME280;71861;52.364;6.580;2023-12-29T16:44:30;100554.06;;;8.32;100.00
82262;BME280;71861;52.364;6.580;2023-12-29T16:46:56;100538.50;;;8.32;100.00
82262;BME280;71861;52.364;6.580;2023-12-29T16:49:21;100535.09;;;8.32;100.00
82262;BME280;71861;52.364;6.580;2023-12-29T16:51:46;100542.72;;;8.33;100.00
82262;BME280;71861;52.364;6.580;2023-12-29T16:54:11;100536.56;;;8.34;100.00
82262;BME280;71861;52.364;6.580;2023-12-29T16:56:37;100514.25;;;8.33;100.00
82262;BME280;71861;52.364;6.580;2023-12-29T16:59:02;100525.56;;;8.32;100.00
82262;BME280;71861;52.364;6.580;2023-12-29T17:01:28;100501.91;;;8.27;100.00
82262;BME280;71861;52.364;6.580;2023-12-29T17:03:53;100506.41;;;8.25;100.00
82262;BME280;71861;52.364;6.580;2023-12-29T17:06:19;100525.09;;;8.19;100.00
82262;BME280;71861;52.364;6.580;2023-12-29T17:08:44;100517.25;;;8.11;100.00